Terminal Aerodrome Forecast
Issued by NWS

Home | Current Version | Previous Version | Graphics & Text | Print | Product List | Glossary On
Versions: 1 2 3 4 5 6 7 8 9 10 11 12 13 14 15
000
FTUS43 KFGF 230520
TAFBJI
TAF
KBJI 230520Z 2306/2406 26006KT P6SM SCT200
     FM231100 29010KT P6SM BKN015
     FM231500 30014KT P6SM OVC035
     FM231700 29016G24KT P6SM OVC030
     FM232300 31014KT P6SM BKN035
     FM240300 30007KT P6SM SCT050=

USA.gov is the U.S. government's official web portal to all federal, state and local government web resources and services.